Phoenix, Arizona
Traffic Map
Current Weather Conditions
Phoenix, Arizona
Few Clouds
Few Clouds
90°
Feels Like: 90°
Wind Chill: 90° Ceiling: Unl
Heat Index: 90° Visibility: 10mi
Dew Point: 48° Wind: 0mph
Humidity: 24% Direction: ° ()
Pressure: 29.98in Gusts: 0mph
Raw Report DataKPHX 231951Z 00000KT 10SM FEW250 32/09 A2998 RMK AO2 SLP133 T03220089
Traffic Incident Summary
Active as of:
Severity:
Category:
InformationThere was an issue retrieving the traffic information for this location. Please try a different location or try again shortly.
Advertisements
Track Severe Weather on mobile